createdAt,value
2023-06-29T07:43:12.949Z,100730.23714454945
2023-06-29T07:46:10.805Z,100718.6324336927
2023-06-29T07:49:06.068Z,100713.07518131273
2023-06-29T07:52:05.663Z,100726.40100556758
2023-06-29T07:55:01.251Z,100722.41727435538
2023-06-29T08:00:56.315Z,100719.96889683715
2023-06-29T08:04:02.270Z,100718.36253932583
2023-06-29T08:06:52.490Z,100712.89728576576
2023-06-29T08:09:47.985Z,100706.25189258225
2023-06-29T08:12:43.525Z,100708.94321267298
2023-06-29T08:15:40.084Z,100712.14988819162
2023-06-29T08:18:35.715Z,100707.32445761848
2023-06-29T08:21:31.224Z,100698.0020259863
2023-06-29T08:24:26.760Z,100712.50504853268
2023-06-29T08:27:22.346Z,100715.16395791483
2023-06-29T08:30:17.910Z,100711.64170138647
2023-06-29T08:33:14.553Z,100709.41259541981
2023-06-29T08:36:09.991Z,100700.34437580648
2023-06-29T08:39:06.589Z,100706.1853240381
2023-06-29T08:42:04.395Z,100706.70870743568
2023-06-29T08:45:01.664Z,100698.62379131619
2023-06-29T08:48:00.350Z,100702.18670715972
2023-06-29T08:51:00.807Z,100700.89875178465
2023-06-29T08:53:57.350Z,100703.24998781728
2023-06-29T08:56:58.933Z,100699.032956402
2023-06-29T08:59:55.500Z,100702.5114863814
2023-06-29T09:02:54.128Z,100701.47865944078
2023-06-29T09:05:51.615Z,100693.87150234469
2023-06-29T09:08:47.291Z,100698.55269709179
2023-06-29T09:11:43.999Z,100691.32247621696
2023-06-29T09:14:45.250Z,100690.85355295653
2023-06-29T09:17:46.885Z,100686.52942952186
2023-06-29T09:20:50.292Z,100696.18332459121
2023-06-29T09:23:50.589Z,100698.86419281906
2023-06-29T09:26:51.449Z,100678.2722453399
2023-06-29T09:29:52.004Z,100680.05115065342
2023-06-29T09:32:47.585Z,100687.09473160235
2023-06-29T09:35:45.114Z,100681.76786480918
2023-06-29T09:38:40.654Z,100685.78659154398
2023-06-29T09:41:43.225Z,100678.71523486981
2023-06-29T09:44:40.815Z,100688.46601483651
2023-06-29T09:50:48.529Z,100670.09679967457
2023-06-29T09:53:47.418Z,100677.39060013062
2023-06-29T09:56:44.948Z,100674.5030617703
2023-06-29T09:59:42.508Z,100673.21934539528
2023-06-29T10:02:40.177Z,100668.85984859041
2023-06-29T10:05:38.628Z,100668.38833764606
2023-06-29T10:08:39.176Z,100668.40870881727
2023-06-29T10:11:37.737Z,100662.70911770157
2023-06-29T10:14:36.312Z,100659.14740204134
2023-06-29T10:17:36.940Z,100667.98275751136
2023-06-29T10:20:35.368Z,100653.88486560783
2023-06-29T10:23:36.900Z,100654.75378096555
2023-06-29T10:26:34.490Z,100643.81248430973
2023-06-29T10:29:31.051Z,100638.52713270656
2023-06-29T10:32:29.625Z,100645.94478965594
2023-06-29T10:35:33.141Z,100645.043711285
2023-06-29T10:38:32.655Z,100648.92970791829
2023-06-29T10:41:29.588Z,100648.5153426634
2023-06-29T10:44:31.815Z,100650.65531970041
2023-06-29T10:47:28.422Z,100652.32578576675
2023-06-29T10:50:28.911Z,100646.69993765157
2023-06-29T10:53:31.483Z,100648.0993699881
2023-06-29T10:56:36.994Z,100643.69167778266
2023-06-29T10:59:40.509Z,100646.58666336964
2023-06-29T11:02:36.089Z,100646.12291900958
2023-06-29T11:05:33.839Z,100640.27736190664
2023-06-29T11:08:31.192Z,100639.87315913271
2023-06-29T11:11:26.778Z,100642.31271796493
2023-06-29T11:14:22.371Z,100648.55931742265
2023-06-29T11:17:19.918Z,100650.05999163842
2023-06-29T11:20:19.396Z,100638.01404547204
2023-06-29T11:23:18.061Z,100632.1663516109
2023-06-29T11:26:13.569Z,100629.21205457744
2023-06-29T11:29:10.503Z,100635.20223395652
2023-06-29T11:32:11.107Z,100626.61211417838
2023-06-29T11:35:08.242Z,100624.54198253642
2023-06-29T11:38:04.792Z,100611.21012053364
2023-06-29T11:41:03.328Z,100616.05648723917
2023-06-29T11:44:01.924Z,100616.63991673876
2023-06-29T11:49:56.027Z,100615.44155510687
2023-06-29T11:52:53.572Z,100611.97477625632
2023-06-29T11:55:51.142Z,100602.8358452576
2023-06-29T11:58:47.697Z,100602.17036021451
2023-06-29T12:01:48.264Z,100599.93151866674
2023-06-29T12:04:57.025Z,100595.94570303301
2023-06-29T12:08:05.498Z,100596.35896203238
2023-06-29T12:11:03.830Z,100592.39084147551
2023-06-29T12:14:02.429Z,100591.39347423388
2023-06-29T12:20:08.962Z,100584.72296532842
2023-06-29T12:23:02.047Z,100590.34058350022
2023-06-29T12:25:57.609Z,100582.94127719855
2023-06-29T12:28:55.188Z,100581.30157072721
2023-06-29T12:31:58.876Z,100581.78197398207
2023-06-29T12:34:56.329Z,100587.63659806232
2023-06-29T12:37:53.827Z,100577.76233059212
2023-06-29T12:40:49.387Z,100579.27686289992
2023-06-29T12:43:45.934Z,100577.50189869718
2023-06-29T12:46:42.549Z,100576.57939790684
2023-06-29T12:49:39.068Z,100564.8396362398
2023-06-29T12:52:35.604Z,100557.9873671792
2023-06-29T12:55:31.181Z,100564.64410086232
2023-06-29T12:58:26.744Z,100560.62785290042
2023-06-29T13:01:25.344Z,100560.75794189819
2023-06-29T13:04:21.178Z,100553.47570898705
2023-06-29T13:07:17.455Z,100552.21183347145
2023-06-29T13:10:13.984Z,100553.21533353087
2023-06-29T13:13:11.608Z,100545.61140648532
2023-06-29T13:16:07.110Z,100549.8600503397
2023-06-29T13:19:02.630Z,100553.01971848994
2023-06-29T13:21:58.321Z,100539.34315441476
2023-06-29T13:24:55.804Z,100539.51699103795
2023-06-29T13:27:51.359Z,100538.26497720265
2023-06-29T13:30:47.923Z,100529.38651839049
2023-06-29T13:33:43.509Z,100542.00041908119
2023-06-29T13:36:42.001Z,100546.54085129796
2023-06-29T13:39:39.598Z,100546.97752773958
2023-06-29T13:42:38.167Z,100541.01389315988
2023-06-29T13:45:33.707Z,100543.52380837231
2023-06-29T13:48:31.362Z,100535.9525048093
2023-06-29T13:51:28.804Z,100538.49331804128
2023-06-29T13:54:25.390Z,100532.78315013126
2023-06-29T13:57:23.432Z,100535.77564396548
2023-06-29T14:00:21.464Z,100529.94799753747
2023-06-29T14:03:17.108Z,100525.98105834692
2023-06-29T14:06:13.613Z,100517.90575028244
2023-06-29T14:09:10.139Z,100521.57823173441
2023-06-29T14:12:07.726Z,100513.19232302302
2023-06-29T14:15:06.291Z,100512.05394968686
2023-06-29T14:18:01.909Z,100505.4925153679
2023-06-29T14:20:59.377Z,100508.55814135476
2023-06-29T14:23:55.947Z,100504.95930737142
2023-06-29T14:26:53.535Z,100505.69582999751
2023-06-29T14:29:49.079Z,100499.24564146636
2023-06-29T14:32:45.758Z,100507.70355106938
2023-06-29T14:35:42.228Z,100500.11039470202
2023-06-29T14:38:38.718Z,100499.60605351908
2023-06-29T14:41:35.294Z,100495.33785499839
2023-06-29T14:44:30.849Z,100488.55709394137
2023-06-29T14:47:27.476Z,100489.13679578848
2023-06-29T14:50:24.001Z,100487.37444384751
2023-06-29T14:53:20.596Z,100489.29387770164
2023-06-29T14:56:17.145Z,100492.23539274196
2023-06-29T14:59:12.815Z,100484.00949678989
2023-06-29T15:02:10.232Z,100477.68326186715
2023-06-29T15:05:05.846Z,100486.49505049737
2023-06-29T15:08:01.320Z,100481.18919752518
2023-06-29T15:10:56.925Z,100479.45511419534
2023-06-29T15:13:52.490Z,100477.68048331913
2023-06-29T15:16:48.079Z,100484.32283661142
2023-06-29T15:19:43.556Z,100477.46756011332
2023-06-29T15:22:41.157Z,100476.18596006106
2023-06-29T15:25:40.192Z,100470.67222173278
2023-06-29T15:28:37.279Z,100488.85822990889
2023-06-29T15:31:32.912Z,100474.54363646288
2023-06-29T15:34:29.398Z,100473.38216545382
2023-06-29T15:37:26.012Z,100475.79638546775
2023-06-29T15:40:21.473Z,100485.12943376738
2023-06-29T15:43:19.074Z,100477.88914867194
2023-06-29T15:46:15.673Z,100479.0601652449
2023-06-29T15:49:12.210Z,100473.67726474532
2023-06-29T15:52:08.790Z,100475.06425953413
2023-06-29T15:55:05.317Z,100468.12739541515
2023-06-29T15:58:02.895Z,100472.30813523603
2023-06-29T16:00:58.416Z,100472.98186160409
2023-06-29T16:03:54.114Z,100480.07651832899
2023-06-29T16:06:54.590Z,100468.97433530737
2023-06-29T16:09:51.107Z,100467.48120921
2023-06-29T16:12:46.709Z,100462.83816916207
2023-06-29T16:15:42.245Z,100466.1371611529
2023-06-29T16:18:37.794Z,100458.38906218484
2023-06-29T16:21:33.357Z,100467.77458307121
2023-06-29T16:24:28.911Z,100461.70308214427
2023-06-29T16:27:24.475Z,100462.87348517589
2023-06-29T16:30:21.054Z,100459.01219389436
2023-06-29T16:33:16.660Z,100464.17733998015
2023-06-29T16:36:12.185Z,100457.88223940712
2023-06-29T16:39:08.745Z,100463.20122320212
2023-06-29T16:42:05.283Z,100464.77657934703
2023-06-29T16:45:00.831Z,100462.87753733783
2023-06-29T16:47:57.497Z,100454.51868440001
2023-06-29T16:50:53.018Z,100462.12053013087
2023-06-29T16:53:49.506Z,100455.96737372772
2023-06-29T16:56:45.081Z,100446.87778981337
2023-06-29T16:59:40.623Z,100443.81576559994
2023-06-29T17:02:36.224Z,100446.57856233996
2023-06-29T17:05:32.756Z,100441.6944104758
2023-06-29T17:08:28.361Z,100445.20833332524
2023-06-29T17:11:26.889Z,100443.71466346309
2023-06-29T17:14:23.412Z,100446.73454677097
2023-06-29T17:17:19.086Z,100445.06595847756
2023-06-29T17:20:14.609Z,100447.34652996087
2023-06-29T17:23:10.084Z,100441.87244203617
2023-06-29T17:26:05.690Z,100447.15415765498
2023-06-29T17:29:01.257Z,100445.67870372241
2023-06-29T17:31:57.857Z,100445.61886479928
2023-06-29T17:34:53.380Z,100444.95832187236
2023-06-29T17:37:49.960Z,100446.40786831017
2023-06-29T17:40:45.533Z,100449.43595681619
2023-06-29T17:43:41.036Z,100455.28564303144
2023-06-29T17:46:39.017Z,100454.20584636692
2023-06-29T17:49:36.174Z,100452.16225545874
2023-06-29T17:52:32.725Z,100455.04322245994
2023-06-29T17:55:28.253Z,100451.07723456432
2023-06-29T17:58:23.863Z,100453.94745075691
2023-06-29T18:01:19.535Z,100457.17234376355
2023-06-29T18:04:15.308Z,100452.17148300585
2023-06-29T18:07:11.555Z,100454.86789310368
2023-06-29T18:10:08.427Z,100458.35098954935
2023-06-29T18:13:04.667Z,100459.36134887933
2023-06-29T18:16:01.245Z,100461.46611050349
2023-06-29T18:18:56.772Z,100460.26578271529
2023-06-29T18:21:52.316Z,100461.63947806557
2023-06-29T18:24:48.973Z,100459.4502919962
2023-06-29T18:27:44.432Z,100463.824976608
2023-06-29T18:30:40.998Z,100462.50549345523
2023-06-29T18:33:36.548Z,100462.95625892925
2023-06-29T18:36:33.274Z,100463.26609811919
2023-06-29T18:39:29.702Z,100460.5935077895
2023-06-29T18:42:26.266Z,100461.88428901159
2023-06-29T18:45:25.982Z,100460.14028619895
2023-06-29T18:48:21.365Z,100467.35755535634
2023-06-29T18:51:16.952Z,100463.88647366645
2023-06-29T18:54:14.586Z,100465.33508320818
2023-06-29T18:57:11.060Z,100466.64526039897
2023-06-29T19:00:08.620Z,100466.19567433666
2023-06-29T19:03:04.333Z,100465.21184797202
2023-06-29T19:05:59.724Z,100467.61631761384
2023-06-29T19:08:56.316Z,100473.21829622581
2023-06-29T19:11:51.852Z,100467.54111061867
2023-06-29T19:14:47.433Z,100472.41649652591
2023-06-29T19:17:44.065Z,100479.77959764561
2023-06-29T19:20:40.526Z,100475.44269546946
2023-06-29T19:23:37.101Z,100474.09124803449
2023-06-29T19:26:32.656Z,100485.69566509846
2023-06-29T19:29:28.262Z,100484.65418280638
2023-06-29T19:32:23.840Z,100482.15402530656
2023-06-29T19:35:19.330Z,100482.75745954207
2023-06-29T19:38:14.902Z,100483.30790128912
2023-06-29T19:41:11.454Z,100489.97808849359
2023-06-29T19:44:07.995Z,100483.53670365602
2023-06-29T19:47:04.579Z,100489.55490111571
2023-06-29T19:50:01.149Z,100486.9473438722
2023-06-29T19:52:56.718Z,100487.77096393715
2023-06-29T19:55:53.315Z,100487.2168091844
2023-06-29T19:58:48.809Z,100486.3661430817
2023-06-29T20:01:44.356Z,100495.08476266004
2023-06-29T20:04:39.953Z,100494.45987543986
2023-06-29T20:07:37.553Z,100492.22443303456
2023-06-29T20:10:34.030Z,100499.7641331205
2023-06-29T20:13:30.669Z,100499.47324115255
2023-06-29T20:16:26.176Z,100502.86931204934
2023-06-29T20:19:23.735Z,100508.22438928703
2023-06-29T20:22:19.295Z,100516.11388232492
2023-06-29T20:25:15.860Z,100507.6219533578
2023-06-29T20:28:11.458Z,100508.136394027
2023-06-29T20:31:08.219Z,100509.3397075917
2023-06-29T20:34:03.520Z,100507.2617067942
2023-06-29T20:37:00.113Z,100508.87359242096
2023-06-29T20:39:55.674Z,100509.00206458666
2023-06-29T20:42:51.310Z,100507.44201456169
2023-06-29T20:45:49.369Z,100513.53002406299
2023-06-29T20:48:45.317Z,100507.99241320591
2023-06-29T20:51:40.896Z,100508.52889986159
2023-06-29T20:54:37.455Z,100507.68441716781
2023-06-29T20:57:38.189Z,100508.34699933944
2023-06-29T21:00:34.572Z,100508.42037686492
2023-06-29T21:03:34.263Z,100504.84626394347
2023-06-29T21:06:31.703Z,100503.88667146434
2023-06-29T21:09:27.253Z,100502.25714756791
2023-06-29T21:12:23.788Z,100502.65818383257
2023-06-29T21:15:20.353Z,100501.80387941284
2023-06-29T21:18:16.919Z,100503.53865195741
2023-06-29T21:21:13.468Z,100508.72952639505
2023-06-29T21:24:11.021Z,100504.43219970175
2023-06-29T21:27:07.589Z,100509.54364848358
2023-06-29T21:30:05.207Z,100508.55555833498
2023-06-29T21:33:01.744Z,100506.59622069717
2023-06-29T21:35:58.277Z,100513.04807515864
2023-06-29T21:38:55.824Z,100516.3435027628
2023-06-29T21:41:51.394Z,100519.63359121523
2023-06-29T21:44:46.991Z,100518.24236063684
2023-06-29T21:47:43.561Z,100511.79817994784
2023-06-29T21:50:40.054Z,100515.3753417622
2023-06-29T21:53:37.613Z,100514.12697749722
2023-06-29T21:56:34.164Z,100509.99360432825
2023-06-29T21:59:29.822Z,100518.82623908683
2023-06-29T22:02:25.303Z,100520.46415862815
2023-06-29T22:05:20.895Z,100516.91265103675
2023-06-29T22:08:17.428Z,100516.11664123237
2023-06-29T22:11:13.022Z,100512.29290823778
2023-06-29T22:14:10.555Z,100521.40125780152
2023-06-29T22:17:07.147Z,100513.70100038056
2023-06-29T22:20:11.789Z,100519.29595663163
2023-06-29T22:23:07.232Z,100510.1188676122
2023-06-29T22:26:02.793Z,100512.15864510846
2023-06-29T22:28:58.316Z,100515.26396606237
2023-06-29T22:31:53.853Z,100519.97010144936
2023-06-29T22:34:52.514Z,100520.61186433234
2023-06-29T22:37:48.010Z,100523.69613969744
2023-06-29T22:40:45.555Z,100525.91668650787
2023-06-29T22:43:42.149Z,100526.05652792369
2023-06-29T22:46:38.772Z,100526.73187243303
2023-06-29T22:49:34.253Z,100528.03736460624
2023-06-29T22:52:29.771Z,100527.47980862317
2023-06-29T22:55:26.384Z,100521.44413771464
2023-06-29T22:58:25.248Z,100514.7636626225
2023-06-29T23:01:20.591Z,100516.52666664455
2023-06-29T23:04:17.205Z,100514.42672273098
2023-06-29T23:07:13.628Z,100511.08239034793
2023-06-29T23:10:10.178Z,100509.80341654416
2023-06-29T23:13:05.711Z,100511.48674667282
2023-06-29T23:16:01.319Z,100509.9409317896
2023-06-29T23:18:56.812Z,100515.97121031776
2023-06-29T23:21:53.452Z,100510.47813614047
2023-06-29T23:24:52.948Z,100510.80052322843
2023-06-29T23:27:49.502Z,100508.97048644163
2023-06-29T23:30:46.043Z,100511.20287081703
2023-06-29T23:33:41.619Z,100508.69727828789
2023-06-29T23:36:37.259Z,100507.44402162591
2023-06-29T23:39:37.741Z,100514.28471310799
2023-06-29T23:42:36.270Z,100511.64361819613
2023-06-29T23:45:33.902Z,100511.9680758284
2023-06-29T23:48:31.420Z,100520.51287638441
2023-06-29T23:51:26.968Z,100516.23316715972
2023-06-29T23:54:22.541Z,100514.63178835837
2023-06-29T23:57:20.117Z,100505.36661426969
